Rices Crossing, Texas
Current Conditions -  °F | °C
As of 10:58 PM on Sunday 21 Dec 2014 (Local Time) from KGRK Reporting Station
Overcast Overcast  
Wind Chill: 53°   Ceiling: 1400
Heat Index: 53°   Visibility: 10mi
Dew Point: 49°   Wind: 16mph
Humidity: 86%   Direction: 190°S
Pressure: 29.79"   Gusts: 24mph
Location:  30.5793°N, 97.5096°W
Report Text: KGRK 220458Z AUTO 19014G21KT 10SM OVC014 11/09 A2979 RMK AO2 SLP087 T01140092
Loading
Personal Weather Stations






























Interactive Weather Map New forecast layout! Learn more

10-Day Weather Forecast

Advertisements
Track Severe Weather on mobile